الصفحة الرئيسية
METAR-TAF:

METAR-TAF

مطار :

Birdsville, أستراليا

دائرة عرض: 25-53-51S, خط طول: 139-20-51E, ارتفاع: 48 متر

مراقبة الطقس الحالي

تاريخ ووقت الإصدار 13 دقيقة قبل الساعة 22:00UTC
رياح هادئة
درجة الحرارة 7°درجة مئوية
الرطوبة 70%
ضغط 1022 hPa

METAR: YBDV 252200Z AUTO 00000KT //// // ////// 07/02 Q1022

زمن: 08:13 (22:13 UTC)


TAF: مفقودة

أرصاد الطقس والتوقعات من أكثر من 4000 مطار (تقارير الطقس للمطار METAR والتنبؤ بالطقس بالمطارTAF).

المحطات المتاحة هي النقط الصفراء والحمراء على الخريطة.

حرك المؤشر فوق النقطة لمعرفة اسم المحطة.

ثم انقر لمعرفة أرصاد وتوقعات الطقس.

لتغيير الخارطة: اضغط على الأزرار الخضراء مع رمز الصليب الأسود للتكبير. على الزر الأخضر مع شرطة للتصغير، أو على الأسهم الخضراء للخرائط المجاورة.


METAR-TAF: